Time;durP1;ratioP1;P1;durP2;ratioP2;P2;SDS_P1;SDS_P2;PMS_P1;PMS_P2;Temp;Humidity;BMP_temperature;BMP_pressure;BME280_temperature;BME280_humidity;BME280_pressure;Samples;Min_cycle;Max_cycle;Signal;HPM_P1;HPM_P2
2022/08/14 00:00:15;;;;;;;5.38;4.32;;;27.80;53.50;;;;;;4996698;28;20042;-86
2022/08/14 00:02:42;;;;;;;5.25;4.18;;;27.80;53.80;;;;;;5014030;28;20110;-86
2022/08/14 00:05:12;;;;;;;8.45;4.15;;;27.80;53.80;;;;;;5014345;28;20026;-86
2022/08/14 00:07:38;;;;;;;5.85;3.88;;;27.70;54.10;;;;;;5014125;28;20026;-86
2022/08/14 00:10:07;;;;;;;5.22;3.75;;;27.70;54.20;;;;;;4996407;28;20489;-86
2022/08/14 00:12:37;;;;;;;4.70;3.90;;;27.60;54.10;;;;;;4996743;28;20109;-86
2022/08/14 00:15:11;;;;;;;5.00;4.15;;;27.60;54.20;;;;;;4996914;28;20022;-86
2022/08/14 00:17:37;;;;;;;7.55;3.90;;;27.60;54.10;;;;;;4996611;28;20029;-86
2022/08/14 00:20:06;;;;;;;5.93;4.25;;;27.60;54.10;;;;;;4980141;28;20034;-86
2022/08/14 00:22:31;;;;;;;4.78;3.90;;;27.50;54.40;;;;;;4996445;28;20026;-86
2022/08/14 00:24:57;;;;;;;4.63;3.78;;;27.50;54.50;;;;;;4996964;28;20037;-86
2022/08/14 00:27:23;;;;;;;5.82;4.20;;;27.40;54.50;;;;;;4997040;28;20390;-86
2022/08/14 00:29:48;;;;;;;5.43;4.15;;;27.40;54.70;;;;;;5000578;28;20116;-86
2022/08/14 00:32:14;;;;;;;6.50;4.28;;;27.40;54.70;;;;;;4984148;28;20022;-86
2022/08/14 00:34:40;;;;;;;6.65;4.40;;;27.30;54.80;;;;;;5000400;28;20510;-86
2022/08/14 00:37:05;;;;;;;7.13;4.43;;;27.30;54.90;;;;;;5018126;28;20466;-86
2022/08/14 00:39:31;;;;;;;6.53;4.20;;;27.30;55.00;;;;;;4984149;28;20038;-86
2022/08/14 00:41:57;;;;;;;6.05;4.35;;;27.30;55.20;;;;;;4983672;28;20038;-86
2022/08/14 00:44:23;;;;;;;5.45;4.35;;;27.20;55.40;;;;;;5017577;28;20073;-87
2022/08/14 00:46:48;;;;;;;5.47;4.30;;;27.10;55.50;;;;;;4984720;28;20030;-86
2022/08/14 00:49:14;;;;;;;11.93;4.40;;;27.10;55.70;;;;;;4983965;28;20042;-86
2022/08/14 00:51:43;;;;;;;5.88;4.57;;;27.10;55.80;;;;;;5000157;28;20026;-86
2022/08/14 00:54:09;;;;;;;7.30;4.60;;;27.10;55.90;;;;;;4999735;28;20022;-86
2022/08/14 00:56:36;;;;;;;6.15;4.20;;;27.00;55.90;;;;;;4999725;28;20026;-86
2022/08/14 00:59:03;;;;;;;6.07;4.22;;;27.00;56.20;;;;;;4983850;28;20041;-86
2022/08/14 01:01:29;;;;;;;6.53;4.32;;;26.90;56.10;;;;;;4996392;28;20136;-85
2022/08/14 01:03:57;;;;;;;8.13;4.90;;;26.90;56.30;;;;;;5016159;28;20448;-86
2022/08/14 01:06:25;;;;;;;6.95;4.40;;;26.90;56.30;;;;;;5015918;28;20025;-86
2022/08/14 01:08:52;;;;;;;5.45;4.43;;;26.80;56.40;;;;;;5016240;28;20382;-85
2022/08/14 01:11:18;;;;;;;6.00;4.05;;;26.80;56.60;;;;;;5015957;28;20034;-86
2022/08/14 01:13:44;;;;;;;6.85;4.35;;;26.70;56.60;;;;;;5016294;28;20024;-86
2022/08/14 01:16:15;;;;;;;5.50;4.40;;;26.70;56.80;;;;;;5016266;28;20065;-86
2022/08/14 01:21:35;;;;;;;8.60;4.57;;;26.60;57.00;;;;;;4993458;28;20113;-86
2022/08/14 01:24:02;;;;;;;5.85;4.93;;;26.60;57.10;;;;;;4999474;28;20053;-86
2022/08/14 01:26:29;;;;;;;6.35;4.63;;;26.50;57.80;;;;;;4999389;28;20029;-87
2022/08/14 01:28:57;;;;;;;6.00;4.88;;;26.50;57.30;;;;;;5015363;28;20049;-86
2022/08/14 01:31:28;;;;;;;7.20;4.60;;;26.50;57.50;;;;;;5015634;28;20032;-86
2022/08/14 01:33:57;;;;;;;7.03;4.95;;;26.40;57.50;;;;;;4999744;28;20465;-86
2022/08/14 01:36:25;;;;;;;5.93;4.78;;;26.40;57.70;;;;;;5015304;28;20022;-86
2022/08/14 01:38:56;;;;;;;6.35;4.95;;;26.40;57.90;;;;;;5017026;28;20026;-86
2022/08/14 01:41:25;;;;;;;9.50;5.43;;;26.30;58.10;;;;;;5016483;28;20029;-85
2022/08/14 01:44:00;;;;;;;6.32;4.97;;;26.30;58.20;;;;;;5017740;28;20021;-86
2022/08/14 01:46:27;;;;;;;8.45;5.57;;;26.30;58.40;;;;;;5016071;28;20028;-88
2022/08/14 01:48:55;;;;;;;7.50;4.93;;;26.20;58.30;;;;;;5016375;28;20030;-87
2022/08/14 01:51:22;;;;;;;8.43;5.63;;;26.20;58.40;;;;;;5015590;28;20061;-86
2022/08/14 01:53:52;;;;;;;7.22;5.25;;;26.20;58.70;;;;;;4999155;28;20601;-86
2022/08/14 01:56:18;;;;;;;5.63;5.03;;;26.10;58.80;;;;;;5015169;28;20022;-86
2022/08/14 01:58:48;;;;;;;6.00;4.90;;;26.10;58.90;;;;;;5016181;28;20153;-86
2022/08/14 02:01:19;;;;;;;11.07;5.65;;;26.10;59.00;;;;;;4998877;28;20069;-86
2022/08/14 02:03:45;;;;;;;;;;;26.10;59.30;;;;;;4999340;28;20034;-87
2022/08/14 02:06:14;;;;;;;6.30;5.18;;;26.00;59.20;;;;;;4998250;28;19914;-87
2022/08/14 02:08:41;;;;;;;5.80;5.00;;;26.00;59.20;;;;;;5014736;28;20036;-86
2022/08/14 02:11:21;;;;;;;7.40;5.38;;;25.90;59.50;;;;;;5015225;28;20038;-87
2022/08/14 02:13:50;;;;;;;6.75;4.95;;;25.90;59.70;;;;;;5015481;28;20032;-87
2022/08/14 02:16:19;;;;;;;7.32;5.00;;;25.90;59.90;;;;;;5014817;28;20022;-87
2022/08/14 02:18:45;;;;;;;5.75;5.00;;;25.90;60.00;;;;;;5015746;28;20018;-86
2022/08/14 02:21:17;;;;;;;7.35;5.18;;;25.80;60.00;;;;;;5016045;28;20104;-86
2022/08/14 02:23:44;;;;;;;8.63;5.45;;;25.80;60.30;;;;;;4999334;28;20466;-85
2022/08/14 02:26:21;;;;;;;6.10;5.22;;;25.80;60.60;;;;;;5017675;28;20037;-86
2022/08/14 02:28:49;;;;;;;6.43;5.05;;;25.80;60.80;;;;;;5018223;28;20029;-86
2022/08/14 02:31:16;;;;;;;8.60;5.28;;;25.70;60.90;;;;;;5043090;28;20036;-85
2022/08/14 02:33:42;;;;;;;6.22;4.78;;;25.70;61.00;;;;;;5048098;28;20062;-86
2022/08/14 02:36:10;;;;;;;12.50;5.85;;;25.70;61.20;;;;;;5004408;28;20041;-86
2022/08/14 02:38:37;;;;;;;6.13;5.07;;;25.70;61.30;;;;;;5013354;28;20030;-86
2022/08/14 02:41:04;;;;;;;9.38;5.00;;;25.60;61.30;;;;;;5011251;28;20080;-86
2022/08/14 02:43:31;;;;;;;5.75;4.95;;;25.60;61.40;;;;;;5025410;28;20034;-86
2022/08/14 02:45:57;;;;;;;6.85;5.65;;;25.60;61.50;;;;;;5019975;28;20077;-86
2022/08/14 02:48:35;;;;;;;8.52;5.78;;;25.50;61.60;;;;;;5016482;28;20037;-87
2022/08/14 02:51:06;;;;;;;8.32;5.18;;;25.50;61.60;;;;;;4999227;28;20038;-85
2022/08/14 02:53:32;;;;;;;7.82;5.65;;;25.50;61.70;;;;;;4998036;28;20029;-86
2022/08/14 02:55:59;;;;;;;6.95;5.30;;;25.50;62.10;;;;;;4997679;28;20036;-86
2022/08/14 02:58:25;;;;;;;7.15;5.43;;;25.40;61.80;;;;;;5014179;28;20417;-86
2022/08/14 03:00:51;;;;;;;8.13;5.20;;;25.40;62.00;;;;;;5013949;28;20050;-86
2022/08/14 03:03:22;;;;;;;6.50;5.47;;;25.40;62.20;;;;;;4997663;28;20056;-86
2022/08/14 03:05:50;;;;;;;7.18;5.18;;;25.40;62.30;;;;;;5014684;28;20021;-86
2022/08/14 03:08:16;;;;;;;6.47;5.60;;;25.30;62.30;;;;;;5013411;28;20113;-84
2022/08/14 03:10:43;;;;;;;8.27;5.80;;;25.30;62.50;;;;;;5013928;28;20069;-86
2022/08/14 03:13:09;;;;;;;7.35;5.30;;;25.30;62.60;;;;;;5014073;28;20026;-86
2022/08/14 03:15:52;;;;;;;7.28;5.60;;;25.20;62.70;;;;;;4997861;28;20037;-86
2022/08/14 03:18:18;;;;;;;7.43;5.80;;;25.20;62.80;;;;;;5000033;28;20339;-86
2022/08/14 03:20:44;;;;;;;7.95;5.70;;;25.20;63.00;;;;;;5030292;28;20053;-87
2022/08/14 03:23:09;;;;;;;7.18;5.22;;;25.20;63.10;;;;;;4997345;28;20112;-86
2022/08/14 03:25:36;;;;;;;7.32;6.03;;;25.10;63.10;;;;;;5013579;28;20037;-86
2022/08/14 03:28:05;;;;;;;6.43;5.70;;;25.10;63.30;;;;;;4981427;28;20054;-85
2022/08/14 03:30:32;;;;;;;7.28;5.63;;;25.10;63.40;;;;;;5013731;28;20033;-85
2022/08/14 03:32:58;;;;;;;7.68;6.32;;;25.00;63.50;;;;;;5013825;28;20033;-86
2022/08/14 03:35:25;;;;;;;8.27;5.97;;;25.00;63.60;;;;;;5014847;28;20429;-86
2022/08/14 03:37:51;;;;;;;7.13;5.85;;;25.00;63.70;;;;;;4997085;28;20026;-86
2022/08/14 03:40:23;;;;;;;6.95;6.22;;;24.90;63.90;;;;;;5013442;28;20036;-85
2022/08/14 03:42:49;;;;;;;11.80;6.40;;;24.90;63.90;;;;;;4997611;28;20092;-86
2022/08/14 03:45:15;;;;;;;7.28;6.00;;;24.90;64.00;;;;;;4997082;28;20034;-86
2022/08/14 03:47:41;;;;;;;7.85;6.30;;;24.80;64.10;;;;;;4997390;28;20026;-86
2022/08/14 03:50:09;;;;;;;8.80;6.35;;;24.80;64.10;;;;;;4997449;28;20073;-86
2022/08/14 03:52:41;;;;;;;8.15;6.43;;;24.80;64.10;;;;;;5013536;28;20041;-86
2022/08/14 03:55:10;;;;;;;8.90;6.70;;;24.80;64.30;;;;;;4983047;28;20019;-86
2022/08/14 03:57:37;;;;;;;7.25;6.13;;;24.70;64.30;;;;;;5013535;28;20062;-86
2022/08/14 04:00:09;;;;;;;7.95;6.50;;;24.70;64.30;;;;;;4999657;28;20029;-86
2022/08/14 04:02:39;;;;;;;8.00;6.78;;;24.70;64.40;;;;;;5020838;28;20265;-86
2022/08/14 04:05:07;;;;;;;7.78;6.57;;;24.60;64.60;;;;;;5022805;28;20017;-86
2022/08/14 04:07:33;;;;;;;7.72;6.43;;;24.60;64.70;;;;;;5023041;28;20017;-86
2022/08/14 04:10:00;;;;;;;7.57;6.38;;;24.60;64.90;;;;;;5022895;28;20095;-86
2022/08/14 04:12:26;;;;;;;7.82;6.50;;;24.60;65.00;;;;;;5023446;28;20029;-86
2022/08/14 04:14:52;;;;;;;7.82;5.95;;;24.50;65.10;;;;;;5023267;28;20480;-86
2022/08/14 04:17:18;;;;;;;7.45;6.32;;;24.50;65.10;;;;;;5022608;28;20026;-85
2022/08/14 04:19:45;;;;;;;8.18;6.53;;;24.50;65.20;;;;;;5006971;28;20087;-86
2022/08/14 04:22:12;;;;;;;8.85;6.70;;;24.50;65.30;;;;;;5006947;28;20025;-86
2022/08/14 04:24:38;;;;;;;9.75;6.63;;;24.50;65.40;;;;;;5040627;28;20523;-86
2022/08/14 04:27:09;;;;;;;8.57;6.25;;;24.40;65.30;;;;;;5040441;28;20129;-85
2022/08/14 04:29:40;;;;;;;8.25;6.10;;;24.40;65.50;;;;;;5023210;28;20132;-86
2022/08/14 04:32:10;;;;;;;8.27;6.47;;;24.40;65.50;;;;;;5022594;28;20492;-86
2022/08/14 04:34:40;;;;;;;7.95;6.15;;;24.40;65.70;;;;;;5006650;28;20095;-86
2022/08/14 04:45:23;;;;;;;7.88;6.90;;;24.20;66.20;;;;;;5041044;28;20499;-87
2022/08/14 04:50:34;;;;;;;8.20;7.15;;;24.20;66.50;;;;;;5025377;28;20083;-86
2022/08/14 04:53:01;;;;;;;8.80;6.60;;;24.10;66.50;;;;;;5040699;28;20029;-86
2022/08/14 04:55:28;;;;;;;8.15;6.80;;;24.10;66.70;;;;;;5040454;28;20052;-86
2022/08/14 04:57:54;;;;;;;7.60;6.60;;;24.10;66.80;;;;;;4990499;28;20033;-86
2022/08/14 05:00:21;;;;;;;9.13;6.88;;;24.10;66.90;;;;;;5006248;28;20060;-86
2022/08/14 05:02:47;;;;;;;8.82;6.45;;;24.10;67.10;;;;;;5040862;28;20025;-86
2022/08/14 05:05:13;;;;;;;8.75;7.05;;;24.10;67.20;;;;;;4990326;28;20049;-87
2022/08/14 05:07:38;;;;;;;8.40;6.70;;;24.10;67.20;;;;;;4990376;28;20068;-86
2022/08/14 05:10:05;;;;;;;7.75;6.65;;;24.00;67.20;;;;;;5022378;28;20564;-86
2022/08/14 05:12:30;;;;;;;8.23;7.30;;;24.00;67.30;;;;;;5006235;28;20104;-86
2022/08/14 05:14:56;;;;;;;9.10;6.95;;;24.00;67.40;;;;;;4986181;28;20041;-87
2022/08/14 05:17:25;;;;;;;9.73;6.93;;;24.00;67.50;;;;;;5019557;28;20026;-86
2022/08/14 05:19:51;;;;;;;9.02;7.20;;;24.00;67.60;;;;;;5037506;28;20022;-86
2022/08/14 05:22:18;;;;;;;14.02;7.28;;;24.00;67.80;;;;;;5002637;28;20022;-86
2022/08/14 05:24:44;;;;;;;9.27;7.00;;;23.90;67.90;;;;;;5003072;28;20111;-86
2022/08/14 05:27:10;;;;;;;12.57;7.45;;;23.90;68.00;;;;;;5002533;28;20058;-86
2022/08/14 05:29:36;;;;;;;7.72;6.38;;;23.90;68.00;;;;;;5019073;28;20037;-86
2022/08/14 05:32:07;;;;;;;8.68;6.65;;;23.90;68.20;;;;;;4986621;28;20454;-87
2022/08/14 05:34:33;;;;;;;7.55;6.75;;;23.90;68.20;;;;;;5003546;28;20029;-85
2022/08/14 05:37:00;;;;;;;8.70;7.00;;;23.90;68.30;;;;;;5002945;28;20017;-86
2022/08/14 05:39:27;;;;;;;9.35;6.95;;;23.90;68.40;;;;;;5018938;28;20037;-85
2022/08/14 05:41:53;;;;;;;11.30;6.65;;;23.90;68.50;;;;;;5018939;28;20021;-85
2022/08/14 05:44:19;;;;;;;8.40;6.68;;;23.90;68.70;;;;;;5019138;28;20050;-86
2022/08/14 05:46:44;;;;;;;7.15;6.45;;;23.90;68.90;;;;;;5002171;28;20026;-85
2022/08/14 05:49:10;;;;;;;7.90;6.72;;;23.90;68.80;;;;;;5018772;28;20033;-85
2022/08/14 05:51:36;;;;;;;9.63;7.43;;;23.90;69.00;;;;;;5019328;28;20071;-85
2022/08/14 05:54:02;;;;;;;8.52;6.82;;;23.90;69.10;;;;;;5018504;28;20080;-86
2022/08/14 05:56:28;;;;;;;11.15;6.97;;;23.90;69.10;;;;;;5002377;28;20051;-85
2022/08/14 05:58:53;;;;;;;7.78;6.93;;;23.90;69.20;;;;;;5018765;28;20033;-85
2022/08/14 06:01:20;;;;;;;11.07;7.97;;;23.90;69.20;;;;;;4998809;28;20393;-85
2022/08/14 06:03:45;;;;;;;9.25;7.60;;;23.90;69.20;;;;;;5016494;28;20509;-86
2022/08/14 06:06:11;;;;;;;9.40;7.80;;;24.00;69.30;;;;;;4998829;28;20034;-87
2022/08/14 06:08:37;;;;;;;10.25;7.78;;;24.00;69.40;;;;;;5015767;28;20406;-86
2022/08/14 06:11:06;;;;;;;8.70;7.57;;;23.90;69.40;;;;;;4998823;28;20422;-86
2022/08/14 06:13:34;;;;;;;9.20;7.15;;;24.00;69.40;;;;;;5015402;28;20026;-86
2022/08/14 06:15:59;;;;;;;8.40;7.30;;;24.00;69.40;;;;;;4998842;28;20038;-87
2022/08/14 06:18:25;;;;;;;9.50;7.57;;;24.00;69.40;;;;;;4999058;28;20033;-86
2022/08/14 06:20:52;;;;;;;8.40;7.40;;;24.00;69.40;;;;;;4998836;28;20061;-85
2022/08/14 06:23:18;;;;;;;9.25;7.20;;;24.00;69.40;;;;;;5016643;28;20121;-86
2022/08/14 06:25:43;;;;;;;8.27;6.95;;;24.00;69.50;;;;;;4997755;28;20057;-86
2022/08/14 06:28:17;;;;;;;9.30;7.47;;;24.00;69.50;;;;;;5005561;28;20038;-86
2022/08/14 06:30:43;;;;;;;8.60;6.53;;;24.00;69.50;;;;;;5013453;28;20033;-84
2022/08/14 06:33:09;;;;;;;8.30;6.85;;;24.10;69.70;;;;;;5014726;28;20022;-86
2022/08/14 06:35:34;;;;;;;7.63;6.82;;;24.10;69.80;;;;;;5044914;28;20045;-86
2022/08/14 06:38:00;;;;;;;8.90;6.53;;;24.10;69.80;;;;;;5012522;28;20041;-86
2022/08/14 06:40:34;;;;;;;8.25;7.40;;;24.10;69.90;;;;;;5013078;28;20116;-86
2022/08/14 06:43:03;;;;;;;9.48;6.90;;;24.10;70.00;;;;;;5045842;28;20026;-86
2022/08/14 06:45:29;;;;;;;9.82;7.25;;;24.10;70.00;;;;;;5023494;28;20022;-85
2022/08/14 06:47:55;;;;;;;9.57;6.88;;;24.10;70.00;;;;;;5015410;28;20073;-85
2022/08/14 06:50:22;;;;;;;7.82;6.88;;;24.20;69.90;;;;;;4999984;28;20030;-86
2022/08/14 06:52:48;;;;;;;9.50;7.88;;;24.20;70.00;;;;;;4999080;28;20033;-86
2022/08/14 06:55:18;;;;;;;10.55;7.18;;;24.20;70.20;;;;;;4997935;28;20112;-85
2022/08/14 06:57:49;;;;;;;7.93;6.73;;;24.20;70.80;;;;;;5014216;28;20033;-85
2022/08/14 07:00:16;;;;;;;;;;;24.30;70.00;;;;;;5019504;28;20046;-86
2022/08/14 07:05:46;;;;;;;10.52;7.30;;;24.30;69.80;;;;;;5021192;28;20064;-86
2022/08/14 07:08:16;;;;;;;10.95;6.72;;;24.40;69.90;;;;;;5003592;28;20060;-86
2022/08/14 07:10:43;;;;;;;;;;;24.40;70.00;;;;;;5035431;28;20083;-86
2022/08/14 07:13:10;;;;;;;8.70;7.35;;;24.40;70.00;;;;;;5018161;28;19956;-86
2022/08/14 07:15:36;;;;;;;8.32;7.22;;;24.50;70.10;;;;;;5004297;28;20026;-86
2022/08/14 07:18:03;;;;;;;9.15;7.45;;;24.50;70.10;;;;;;5019791;28;20472;-86
2022/08/14 07:20:29;;;;;;;8.32;7.32;;;24.50;70.10;;;;;;5004393;28;20041;-87
2022/08/14 07:22:59;;;;;;;8.57;7.43;;;24.60;70.30;;;;;;5018238;28;20032;-86
2022/08/14 07:25:24;;;;;;;7.85;6.85;;;24.60;70.40;;;;;;4987520;28;20035;-86
2022/08/14 07:27:50;;;;;;;10.90;7.78;;;24.70;70.30;;;;;;5021831;28;20025;-83
2022/08/14 07:30:16;;;;;;;11.75;7.57;;;24.70;70.10;;;;;;4988132;28;20029;-84
2022/08/14 07:32:42;;;;;;;10.02;7.35;;;24.80;70.00;;;;;;5004438;28;20458;-86
2022/08/14 07:35:08;;;;;;;8.93;7.57;;;24.80;70.70;;;;;;4988228;28;20025;-88
2022/08/14 07:37:34;;;;;;;10.95;7.85;;;24.90;70.00;;;;;;5021307;28;20022;-89
2022/08/14 07:40:03;;;;;;;10.82;7.97;;;25.00;70.10;;;;;;4986211;28;20370;-88
2022/08/14 07:42:31;;;;;;;9.82;7.00;;;25.00;70.00;;;;;;5035031;28;20027;-87
2022/08/14 07:44:57;;;;;;;10.07;7.07;;;25.10;70.00;;;;;;5004219;28;20022;-88
2022/08/14 07:47:23;;;;;;;9.07;7.47;;;25.20;70.00;;;;;;5000749;28;20057;-87
2022/08/14 07:50:01;;;;;;;9.40;7.63;;;25.20;70.00;;;;;;5000608;28;20045;-87
2022/08/14 07:52:30;;;;;;;8.73;7.03;;;25.30;69.80;;;;;;5000407;28;20458;-87
2022/08/14 07:54:56;;;;;;;8.50;7.47;;;25.40;69.80;;;;;;5016527;28;20026;-87
2022/08/14 07:57:22;;;;;;;8.73;7.18;;;25.40;69.50;;;;;;5034590;28;20096;-88
2022/08/14 07:59:48;;;;;;;9.07;7.85;;;25.50;69.60;;;;;;5034841;28;20052;-89
2022/08/14 08:02:15;;;;;;;8.43;6.57;;;25.60;69.70;;;;;;5017772;28;20033;-90
2022/08/14 08:04:45;;;;;;;7.20;6.22;;;25.60;69.70;;;;;;5017280;28;20052;-91
2022/08/14 08:07:15;;;;;;;7.28;6.22;;;25.80;69.70;;;;;;5018057;28;20017;-89
2022/08/14 08:09:46;;;;;;;7.30;6.07;;;25.80;69.50;;;;;;5017683;28;20128;-92
2022/08/14 08:12:14;;;;;;;9.20;7.22;;;25.90;70.10;;;;;;5017844;28;20093;-90
2022/08/14 08:14:42;;;;;;;9.30;7.05;;;26.00;69.00;;;;;;5017859;28;20026;-90
2022/08/14 08:17:08;;;;;;;7.63;6.18;;;26.10;68.60;;;;;;5001451;28;20025;-92
2022/08/14 08:19:34;;;;;;;6.88;5.93;;;26.10;68.70;;;;;;5017855;28;20026;-90
2022/08/14 08:22:02;;;;;;;8.00;6.07;;;26.20;68.60;;;;;;5025122;28;20022;-91
2022/08/14 08:24:29;;;;;;;9.35;6.00;;;26.30;68.40;;;;;;4988595;28;20061;-94
2022/08/14 08:26:55;;;;;;;6.90;5.63;;;26.40;68.30;;;;;;5020134;28;20026;-88
2022/08/14 08:29:23;;;;;;;6.63;5.88;;;26.50;68.10;;;;;;5004255;28;20030;-89
2022/08/14 08:31:51;;;;;;;8.30;5.82;;;26.60;68.00;;;;;;5037849;28;20422;-83
2022/08/14 08:34:18;;;;;;;8.43;6.05;;;26.70;68.00;;;;;;5021890;28;20021;-86
2022/08/14 08:36:44;;;;;;;9.45;5.75;;;26.70;67.90;;;;;;5037799;28;20033;-82
2022/08/14 08:39:11;;;;;;;7.15;5.68;;;26.80;67.60;;;;;;5021270;28;20029;-83
2022/08/14 08:41:46;;;;;;;7.90;6.22;;;26.90;67.50;;;;;;5037255;28;20022;-82
2022/08/14 08:44:12;;;;;;;7.88;5.38;;;27.00;67.40;;;;;;5039638;28;20029;-86
2022/08/14 08:46:38;;;;;;;7.40;5.47;;;27.10;67.10;;;;;;5004951;28;20030;-83
2022/08/14 08:49:05;;;;;;;7.25;5.65;;;27.20;67.00;;;;;;5039869;28;20052;-83
2022/08/14 08:51:37;;;;;;;7.03;5.70;;;27.20;66.70;;;;;;5021145;28;20075;-83
2022/08/14 08:54:14;;;;;;;7.93;6.53;;;27.30;66.50;;;;;;5020764;28;20021;-83
2022/08/14 08:56:49;;;;;;;8.05;6.03;;;27.40;66.20;;;;;;5022435;28;20116;-83
2022/08/14 08:59:35;;;;;;;8.35;5.50;;;27.40;65.90;;;;;;5038543;28;20053;-83
2022/08/14 09:02:07;;;;;;;9.68;5.95;;;27.50;65.60;;;;;;5018641;28;20100;-83
2022/08/14 09:04:40;;;;;;;7.60;5.30;;;27.60;64.70;;;;;;5019218;28;20056;-83
2022/08/14 09:07:06;;;;;;;6.30;5.03;;;27.70;64.30;;;;;;5037085;28;20033;-83
2022/08/14 09:09:33;;;;;;;6.78;5.47;;;27.70;64.30;;;;;;5002735;28;20125;-84
2022/08/14 09:12:02;;;;;;;6.05;5.25;;;27.80;64.40;;;;;;5020034;28;20026;-84
2022/08/14 09:14:29;;;;;;;5.60;5.00;;;27.80;64.30;;;;;;5002923;28;20088;-84
2022/08/14 09:16:57;;;;;;;7.07;5.65;;;27.90;64.20;;;;;;5020713;28;20028;-83
2022/08/14 09:19:24;;;;;;;8.60;5.03;;;28.00;64.00;;;;;;5018602;28;20377;-83
2022/08/14 09:21:50;;;;;;;8.02;5.05;;;28.00;64.00;;;;;;5021477;28;20057;-84
2022/08/14 09:24:16;;;;;;;5.97;4.93;;;28.10;63.90;;;;;;5018756;28;20127;-82
2022/08/14 09:26:44;;;;;;;7.90;5.65;;;28.20;63.70;;;;;;5019836;28;20619;-82
2022/08/14 09:29:12;;;;;;;6.50;5.22;;;28.30;63.50;;;;;;5018664;28;20021;-83
2022/08/14 09:31:43;;;;;;;6.75;5.25;;;28.30;63.20;;;;;;5041053;28;20108;-83
2022/08/14 09:34:40;;;;;;;5.78;4.90;;;28.40;63.20;;;;;;5024286;28;20024;-83
2022/08/14 09:37:24;;;;;;;5.80;5.20;;;28.50;63.50;;;;;;5018803;28;20059;-87
2022/08/14 09:39:53;;;;;;;8.85;5.07;;;28.60;63.40;;;;;;5035881;28;20041;-86
2022/08/14 09:42:21;;;;;;;6.80;5.38;;;28.60;63.60;;;;;;5017980;28;20022;-83
2022/08/14 09:45:02;;;;;;;6.50;4.60;;;28.70;62.80;;;;;;5017644;28;20068;-83
2022/08/14 09:47:43;;;;;;;6.82;4.68;;;28.80;62.70;;;;;;5018278;28;20105;-84
2022/08/14 09:50:17;;;;;;;5.78;4.85;;;28.90;62.60;;;;;;5018567;28;20366;-85
2022/08/14 09:53:33;;;;;;;5.93;5.05;;;28.90;62.40;;;;;;5018293;28;20088;-81
2022/08/14 09:55:59;;;;;;;6.00;4.82;;;29.00;62.30;;;;;;4992322;28;20038;-82
2022/08/14 09:58:41;;;;;;;5.55;4.22;;;29.10;61.70;;;;;;5002667;28;20025;-80
2022/08/14 10:01:13;;;;;;;8.10;5.03;;;29.20;61.80;;;;;;5036703;28;20052;-82
2022/08/14 10:03:55;;;;;;;5.55;4.45;;;29.20;61.50;;;;;;5036876;28;20068;-81
2022/08/14 10:06:28;;;;;;;6.95;4.65;;;29.30;61.40;;;;;;5019523;28;20506;-81
2022/08/14 10:09:12;;;;;;;5.78;4.35;;;29.40;61.20;;;;;;5036299;28;20025;-80
2022/08/14 10:11:39;;;;;;;4.85;4.25;;;29.50;61.20;;;;;;5036246;28;20033;-81
2022/08/14 10:14:15;;;;;;;6.53;4.40;;;29.50;60.80;;;;;;5017881;28;20086;-81
2022/08/14 10:16:43;;;;;;;4.85;4.03;;;29.60;60.20;;;;;;5019656;28;20013;-83
2022/08/14 10:19:18;;;;;;;5.70;4.35;;;29.70;60.10;;;;;;5018838;28;20108;-82
2022/08/14 10:21:59;;;;;;;5.93;4.40;;;29.80;59.90;;;;;;5021812;28;20018;-83
2022/08/14 10:24:38;;;;;;;4.97;3.97;;;29.80;59.70;;;;;;5019807;28;20017;-83
2022/08/14 10:27:15;;;;;;;6.80;5.00;;;29.90;59.80;;;;;;5003451;28;20029;-83
2022/08/14 10:29:42;;;;;;;5.57;4.40;;;30.00;59.10;;;;;;5020041;28;20041;-83
2022/08/14 10:32:10;;;;;;;5.80;4.40;;;30.00;58.40;;;;;;5028603;28;20030;-82
2022/08/14 10:34:38;;;;;;;4.65;4.13;;;30.10;58.30;;;;;;5018843;28;20171;-84
2022/08/14 10:37:12;;;;;;;4.43;4.00;;;30.20;58.20;;;;;;5002286;28;20026;-83
2022/08/14 10:39:40;;;;;;;5.18;4.32;;;30.20;58.00;;;;;;5032309;28;20061;-88
2022/08/14 10:42:08;;;;;;;4.57;3.80;;;30.30;57.60;;;;;;4996079;28;20132;-83
2022/08/14 10:44:39;;;;;;;4.90;4.13;;;30.40;57.50;;;;;;5031250;28;20496;-89
2022/08/14 10:47:08;;;;;;;5.63;4.28;;;30.40;57.60;;;;;;5049715;28;20053;-85
2022/08/14 10:49:35;;;;;;;5.57;4.50;;;30.50;57.40;;;;;;5008099;28;20470;-84
2022/08/14 10:52:06;;;;;;;5.15;4.25;;;30.60;56.70;;;;;;5035793;28;20027;-84
2022/08/14 10:54:43;;;;;;;7.50;4.40;;;30.60;56.30;;;;;;5017206;28;20124;-83
2022/08/14 10:57:26;;;;;;;5.07;3.80;;;30.70;56.10;;;;;;5034647;28;20028;-83
2022/08/14 10:59:57;;;;;;;7.65;4.35;;;30.80;56.20;;;;;;5000489;28;20037;-85
2022/08/14 11:02:27;;;;;;;5.10;3.85;;;30.80;56.10;;;;;;5017116;28;20381;-85
2022/08/14 11:05:04;;;;;;;6.85;4.05;;;30.90;56.00;;;;;;5015918;28;20223;-83
2022/08/14 11:07:30;;;;;;;6.30;4.30;;;30.90;55.60;;;;;;5017297;28;20026;-84
2022/08/14 11:09:59;;;;;;;4.63;3.80;;;31.00;55.40;;;;;;5016605;28;20038;-86
2022/08/14 11:12:26;;;;;;;5.10;3.90;;;31.10;55.10;;;;;;5015866;28;20022;-85
2022/08/14 11:14:55;;;;;;;4.80;4.10;;;31.10;54.50;;;;;;5016546;28;20036;-84
2022/08/14 11:17:20;;;;;;;5.05;3.88;;;31.20;54.70;;;;;;5034123;28;20416;-83
2022/08/14 11:19:46;;;;;;;5.15;4.30;;;31.30;54.80;;;;;;5016414;28;20083;-85
2022/08/14 11:22:15;;;;;;;9.93;4.63;;;31.30;54.40;;;;;;5033037;28;20022;-85
2022/08/14 11:24:43;;;;;;;4.50;4.07;;;31.40;53.60;;;;;;5034299;28;20091;-85
2022/08/14 11:27:10;;;;;;;8.38;4.55;;;31.40;53.40;;;;;;5016471;28;20026;-85
2022/08/14 11:29:38;;;;;;;5.07;4.25;;;31.50;53.00;;;;;;5000247;28;20710;-84
2022/08/14 11:32:05;;;;;;;5.88;4.38;;;31.50;52.50;;;;;;5016660;28;20022;-85
2022/08/14 11:34:36;;;;;;;5.22;4.53;;;31.60;52.30;;;;;;5000136;28;20057;-86
2022/08/14 11:37:10;;;;;;;6.18;4.35;;;31.70;52.30;;;;;;5016270;28;20018;-85
2022/08/14 11:39:36;;;;;;;4.78;4.10;;;31.70;51.60;;;;;;5016463;28;20064;-85
2022/08/14 11:42:06;;;;;;;6.38;4.00;;;31.70;52.00;;;;;;5000052;28;20430;-85
2022/08/14 11:44:32;;;;;;;4.85;4.32;;;31.80;52.20;;;;;;5000573;28;20029;-87
2022/08/14 11:46:57;;;;;;;6.22;3.88;;;31.90;52.20;;;;;;5000423;28;20033;-84
2022/08/14 11:49:29;;;;;;;5.07;4.05;;;31.90;52.10;;;;;;4983739;28;20025;-84
2022/08/14 11:51:55;;;;;;;4.13;3.72;;;31.90;51.80;;;;;;5016463;28;20026;-84
2022/08/14 11:54:22;;;;;;;5.85;4.03;;;32.00;51.70;;;;;;5033605;28;20363;-84
2022/08/14 11:56:51;;;;;;;5.43;4.03;;;32.10;51.60;;;;;;5001215;28;20029;-84
2022/08/14 11:59:21;;;;;;;5.25;4.15;;;32.20;51.10;;;;;;5034054;28;20296;-85
2022/08/14 12:01:47;;;;;;;;;;;32.30;50.90;;;;;;5000667;28;20457;-86
2022/08/14 12:04:17;;;;;;;4.95;4.10;;;32.30;50.90;;;;;;5017167;28;19909;-85
2022/08/14 12:06:54;;;;;;;;;;;32.30;50.60;;;;;;5001040;28;20029;-85
2022/08/14 12:09:27;;;;;;;;;;;32.40;50.70;;;;;;5017268;28;19935;-85
2022/08/14 12:11:54;;;;;;;;;;;32.40;51.00;;;;;;5034349;28;20012;-85
2022/08/14 12:14:22;;;;;;;;;;;32.50;51.30;;;;;;5016753;28;20016;-86
2022/08/14 12:16:57;;;;;;;;;;;32.60;50.40;;;;;;5016053;28;19905;-85
2022/08/14 12:19:24;;;;;;;;;;;32.60;49.40;;;;;;5015681;28;19959;-85
2022/08/14 12:21:50;;;;;;;;;;;32.60;49.50;;;;;;5000592;28;19916;-85
2022/08/14 12:24:15;;;;;;;;;;;32.70;49.70;;;;;;5037490;28;19908;-84
2022/08/14 12:26:41;;;;;;;;;;;32.70;49.70;;;;;;5003900;28;19916;-85
2022/08/14 12:29:11;;;;;;;;;;;32.80;50.00;;;;;;5003164;28;19909;-85
2022/08/14 12:31:37;;;;;;;;;;;32.80;49.40;;;;;;5036701;28;20284;-84
2022/08/14 12:34:04;;;;;;;;;;;32.80;49.70;;;;;;5037729;28;19905;-86
2022/08/14 12:36:31;;;;;;;;;;;32.90;49.90;;;;;;5036485;28;20349;-85
2022/08/14 12:38:58;;;;;;;;;;;32.90;49.50;;;;;;5019338;28;20418;-85
2022/08/14 12:41:25;;;;;;;;;;;33.00;49.60;;;;;;5003262;28;19910;-84
2022/08/14 12:44:00;;;;;;;;;;;33.00;49.40;;;;;;5019341;28;19912;-84
2022/08/14 12:46:30;;;;;;;;;;;33.10;48.90;;;;;;5037124;28;19909;-84
2022/08/14 12:48:58;;;;;;;;;;;33.20;48.90;;;;;;5019149;28;19909;-84
2022/08/14 12:51:24;;;;;;;;;;;33.20;48.80;;;;;;5036650;28;19913;-85
2022/08/14 12:53:51;;;;;;;;;;;33.30;49.00;;;;;;5018840;28;19905;-85
2022/08/14 12:56:17;;;;;;;;;;;33.30;48.90;;;;;;5019023;28;19992;-84
2022/08/14 12:58:50;;;;;;;;;;;33.40;48.90;;;;;;5019115;28;19909;-85
2022/08/14 13:01:24;;;;;;;;;;;33.40;48.50;;;;;;5018582;28;20020;-86
2022/08/14 13:03:51;;;;;;;;;;;33.50;48.40;;;;;;5018830;28;19905;-85
2022/08/14 13:06:18;;;;;;;;;;;33.50;48.40;;;;;;5002638;28;19909;-84
2022/08/14 13:08:44;;;;;;;;;;;33.50;48.50;;;;;;5003072;28;20007;-84
2022/08/14 13:11:13;;;;;;;;;;;33.60;48.50;;;;;;5019361;28;19964;-85
2022/08/14 13:13:43;;;;;;;;;;;33.60;48.50;;;;;;5036012;28;19991;-84
2022/08/14 13:16:12;;;;;;;;;;;33.70;48.70;;;;;;5019103;28;20003;-85
2022/08/14 13:18:39;;;;;;;;;;;33.70;48.10;;;;;;5018961;28;19952;-85